sensor_id;sensor_type;location;lat;lon;timestamp;pressure;altitude;pressure_sealevel;temperature;humidity
11212;BME280;5663;50.864;12.096;2023-03-14T00:02:01;97278.91;;;12.00;81.86
11212;BME280;5663;50.864;12.096;2023-03-14T00:04:29;97271.25;;;11.98;81.80
11212;BME280;5663;50.864;12.096;2023-03-14T00:06:57;97272.34;;;11.96;81.51
11212;BME280;5663;50.864;12.096;2023-03-14T00:09:25;97263.69;;;11.95;81.59
11212;BME280;5663;50.864;12.096;2023-03-14T00:11:55;97227.09;;;11.77;81.53
11212;BME280;5663;50.864;12.096;2023-03-14T00:14:25;97245.75;;;11.92;81.15
11212;BME280;5663;50.864;12.096;2023-03-14T00:16:53;97248.50;;;11.91;81.11
11212;BME280;5663;50.864;12.096;2023-03-14T00:19:20;97257.56;;;11.87;81.59
11212;BME280;5663;50.864;12.096;2023-03-14T00:21:49;97260.41;;;11.83;81.61
11212;BME280;5663;50.864;12.096;2023-03-14T00:24:17;97261.34;;;11.82;81.55
11212;BME280;5663;50.864;12.096;2023-03-14T00:26:47;97255.22;;;11.83;81.68
11212;BME280;5663;50.864;12.096;2023-03-14T00:29:14;97267.97;;;11.87;82.06
11212;BME280;5663;50.864;12.096;2023-03-14T00:31:45;97256.59;;;11.88;82.06
11212;BME280;5663;50.864;12.096;2023-03-14T00:34:13;97226.31;;;11.87;81.56
11212;BME280;5663;50.864;12.096;2023-03-14T00:36:41;97218.88;;;11.92;81.76
11212;BME280;5663;50.864;12.096;2023-03-14T00:39:08;97210.94;;;11.93;81.65
11212;BME280;5663;50.864;12.096;2023-03-14T00:41:36;97201.34;;;11.94;81.97
11212;BME280;5663;50.864;12.096;2023-03-14T00:44:03;97200.22;;;11.96;81.74
11212;BME280;5663;50.864;12.096;2023-03-14T00:46:31;97207.09;;;11.97;81.79
11212;BME280;5663;50.864;12.096;2023-03-14T00:49:00;97219.97;;;11.99;81.70
11212;BME280;5663;50.864;12.096;2023-03-14T00:51:28;97223.28;;;12.01;81.70
11212;BME280;5663;50.864;12.096;2023-03-14T00:53:55;97239.41;;;12.04;81.36
11212;BME280;5663;50.864;12.096;2023-03-14T00:56:24;97250.00;;;12.03;81.48
11212;BME280;5663;50.864;12.096;2023-03-14T00:58:53;97280.00;;;12.07;81.17
11212;BME280;5663;50.864;12.096;2023-03-14T01:01:22;97280.72;;;12.09;81.29
11212;BME280;5663;50.864;12.096;2023-03-14T01:03:51;97290.28;;;12.08;81.10
11212;BME280;5663;50.864;12.096;2023-03-14T01:06:22;97282.47;;;12.08;80.84
11212;BME280;5663;50.864;12.096;2023-03-14T01:08:51;97278.91;;;12.10;81.03
11212;BME280;5663;50.864;12.096;2023-03-14T01:11:21;97275.34;;;12.11;80.67
11212;BME280;5663;50.864;12.096;2023-03-14T01:13:49;97285.63;;;12.12;80.66
11212;BME280;5663;50.864;12.096;2023-03-14T01:16:17;97283.00;;;12.12;80.65
11212;BME280;5663;50.864;12.096;2023-03-14T01:18:46;97246.88;;;11.90;80.39
11212;BME280;5663;50.864;12.096;2023-03-14T01:21:16;97278.63;;;12.13;80.62
11212;BME280;5663;50.864;12.096;2023-03-14T01:23:46;97289.88;;;12.13;80.14
11212;BME280;5663;50.864;12.096;2023-03-14T01:26:16;97283.56;;;12.16;80.22
11212;BME280;5663;50.864;12.096;2023-03-14T01:28:46;97296.72;;;12.14;80.08
11212;BME280;5663;50.864;12.096;2023-03-14T01:31:15;97287.13;;;12.15;79.71
11212;BME280;5663;50.864;12.096;2023-03-14T01:33:43;97297.28;;;12.18;79.44
11212;BME280;5663;50.864;12.096;2023-03-14T01:36:13;97262.47;;;11.99;79.30
11212;BME280;5663;50.864;12.096;2023-03-14T01:38:41;97289.59;;;12.16;79.32
11212;BME280;5663;50.864;12.096;2023-03-14T01:41:15;97298.38;;;12.15;79.39
11212;BME280;5663;50.864;12.096;2023-03-14T01:43:43;97286.31;;;12.14;79.21
11212;BME280;5663;50.864;12.096;2023-03-14T01:46:24;97277.78;;;12.12;79.22
11212;BME280;5663;50.864;12.096;2023-03-14T01:48:58;97276.97;;;12.12;79.19
11212;BME280;5663;50.864;12.096;2023-03-14T01:51:30;97225.47;;;11.86;78.96
11212;BME280;5663;50.864;12.096;2023-03-14T01:54:05;97270.13;;;12.11;78.74
11212;BME280;5663;50.864;12.096;2023-03-14T01:56:35;97264.94;;;12.11;78.49
11212;BME280;5663;50.864;12.096;2023-03-14T01:59:06;97258.91;;;12.10;78.40
11212;BME280;5663;50.864;12.096;2023-03-14T02:01:36;97161.91;;;11.50;77.92
11212;BME280;5663;50.864;12.096;2023-03-14T02:04:05;97253.00;;;12.08;77.79
11212;BME280;5663;50.864;12.096;2023-03-14T02:06:40;97250.38;;;12.08;77.64
11212;BME280;5663;50.864;12.096;2023-03-14T02:09:09;97229.03;;;11.95;77.33
11212;BME280;5663;50.864;12.096;2023-03-14T02:11:38;97250.53;;;12.06;77.31
11212;BME280;5663;50.864;12.096;2023-03-14T02:14:07;97257.53;;;12.06;77.32
11212;BME280;5663;50.864;12.096;2023-03-14T02:16:39;97240.53;;;12.02;77.14
11212;BME280;5663;50.864;12.096;2023-03-14T02:19:07;97240.53;;;12.02;77.12
11212;BME280;5663;50.864;12.096;2023-03-14T02:21:43;97233.97;;;11.98;76.95
11212;BME280;5663;50.864;12.096;2023-03-14T02:24:17;97203.84;;;11.86;76.76
11212;BME280;5663;50.864;12.096;2023-03-14T02:27:08;97225.19;;;11.99;76.46
11212;BME280;5663;50.864;12.096;2023-03-14T02:29:39;97166.56;;;11.66;76.46
11212;BME280;5663;50.864;12.096;2023-03-14T03:30:40;97168.72;;;11.90;74.97
11212;BME280;5663;50.864;12.096;2023-03-14T03:33:09;97161.59;;;11.92;74.98
11212;BME280;5663;50.864;12.096;2023-03-14T03:35:42;97150.19;;;11.93;74.52
11212;BME280;5663;50.864;12.096;2023-03-14T03:38:11;97158.00;;;11.93;74.56
11212;BME280;5663;50.864;12.096;2023-03-14T03:40:39;97135.81;;;11.89;74.21
11212;BME280;5663;50.864;12.096;2023-03-14T03:43:06;97134.88;;;11.90;74.17
11212;BME280;5663;50.864;12.096;2023-03-14T03:45:36;97147.19;;;11.88;74.10
11212;BME280;5663;50.864;12.096;2023-03-14T03:48:06;97142.00;;;11.88;73.85
11212;BME280;5663;50.864;12.096;2023-03-14T03:50:33;97149.81;;;11.88;73.93
11212;BME280;5663;50.864;12.096;2023-03-14T03:53:01;97156.66;;;11.89;73.61
11212;BME280;5663;50.864;12.096;2023-03-14T03:55:28;97158.59;;;11.87;73.45
11212;BME280;5663;50.864;12.096;2023-03-14T03:57:56;97159.56;;;11.86;73.37
11212;BME280;5663;50.864;12.096;2023-03-14T04:00:23;97152.69;;;11.84;73.25
11212;BME280;5663;50.864;12.096;2023-03-14T04:02:52;97152.56;;;11.86;73.08
11212;BME280;5663;50.864;12.096;2023-03-14T04:05:20;97144.88;;;11.84;73.21
11212;BME280;5663;50.864;12.096;2023-03-14T04:07:48;97143.94;;;11.86;73.00
11212;BME280;5663;50.864;12.096;2023-03-14T04:10:15;97139.66;;;11.84;72.82
11212;BME280;5663;50.864;12.096;2023-03-14T04:12:43;97135.44;;;11.83;72.56
11212;BME280;5663;50.864;12.096;2023-03-14T04:15:10;97133.63;;;11.84;72.77
11212;BME280;5663;50.864;12.096;2023-03-14T04:17:38;97128.72;;;11.81;72.58
11212;BME280;5663;50.864;12.096;2023-03-14T04:20:07;97109.63;;;11.80;72.86
11212;BME280;5663;50.864;12.096;2023-03-14T04:22:39;97114.03;;;11.80;72.76
11212;BME280;5663;50.864;12.096;2023-03-14T04:25:07;97114.19;;;11.78;72.47
11212;BME280;5663;50.864;12.096;2023-03-14T04:27:36;97117.75;;;11.77;72.37
11212;BME280;5663;50.864;12.096;2023-03-14T04:30:04;97127.47;;;11.75;72.57
11212;BME280;5663;50.864;12.096;2023-03-14T05:31:07;97080.25;;;11.51;72.38
11212;BME280;5663;50.864;12.096;2023-03-14T05:33:36;97082.72;;;11.52;72.44
11212;BME280;5663;50.864;12.096;2023-03-14T05:36:04;97075.59;;;11.54;72.57
11212;BME280;5663;50.864;12.096;2023-03-14T05:38:32;97072.84;;;11.56;72.42
11212;BME280;5663;50.864;12.096;2023-03-14T05:41:00;97080.00;;;11.54;72.43
11212;BME280;5663;50.864;12.096;2023-03-14T05:43:29;97070.41;;;11.45;72.17
11212;BME280;5663;50.864;12.096;2023-03-14T05:45:58;97082.72;;;11.52;72.24
11212;BME280;5663;50.864;12.096;2023-03-14T05:48:27;97097.78;;;11.58;72.21
11212;BME280;5663;50.864;12.096;2023-03-14T05:50:55;97022.81;;;11.15;72.17
11212;BME280;5663;50.864;12.096;2023-03-14T05:53:23;97075.59;;;11.45;72.27
11212;BME280;5663;50.864;12.096;2023-03-14T05:55:52;97017.09;;;11.02;72.27
11212;BME280;5663;50.864;12.096;2023-03-14T05:58:20;97095.31;;;11.57;72.13
11212;BME280;5663;50.864;12.096;2023-03-14T06:00:47;97083.81;;;11.59;72.12
11212;BME280;5663;50.864;12.096;2023-03-14T06:03:16;97086.94;;;11.63;71.89
11212;BME280;5663;50.864;12.096;2023-03-14T06:05:49;97093.66;;;11.66;71.97
11212;BME280;5663;50.864;12.096;2023-03-14T06:08:17;97087.34;;;11.68;71.58
11212;BME280;5663;50.864;12.096;2023-03-14T06:10:45;97091.88;;;11.66;71.64
11212;BME280;5663;50.864;12.096;2023-03-14T06:13:12;97099.09;;;11.72;71.34
11212;BME280;5663;50.864;12.096;2023-03-14T06:15:41;97096.50;;;11.72;71.19
11212;BME280;5663;50.864;12.096;2023-03-14T06:18:08;97098.81;;;11.75;71.09
11212;BME280;5663;50.864;12.096;2023-03-14T06:20:36;97108.16;;;11.78;71.11
11212;BME280;5663;50.864;12.096;2023-03-14T06:23:08;97096.91;;;11.77;71.30
11212;BME280;5663;50.864;12.096;2023-03-14T06:25:37;97100.06;;;11.81;71.08
11212;BME280;5663;50.864;12.096;2023-03-14T06:28:05;97111.28;;;11.81;71.03
11212;BME280;5663;50.864;12.096;2023-03-14T06:30:32;97113.50;;;11.86;71.06
11212;BME280;5663;50.864;12.096;2023-03-14T06:33:00;97103.75;;;11.88;70.78
11212;BME280;5663;50.864;12.096;2023-03-14T06:35:27;97098.41;;;11.90;70.64
11212;BME280;5663;50.864;12.096;2023-03-14T06:37:55;97101.84;;;11.90;70.71
11212;BME280;5663;50.864;12.096;2023-03-14T06:40:25;97095.94;;;11.88;70.38
11212;BME280;5663;50.864;12.096;2023-03-14T06:42:54;97107.59;;;11.94;70.62
11212;BME280;5663;50.864;12.096;2023-03-14T06:45:22;97103.03;;;11.96;70.42
11212;BME280;5663;50.864;12.096;2023-03-14T06:47:50;97107.00;;;12.00;70.57
11212;BME280;5663;50.864;12.096;2023-03-14T06:50:17;97096.31;;;12.03;70.24
11212;BME280;5663;50.864;12.096;2023-03-14T06:52:45;97095.88;;;12.07;70.01
11212;BME280;5663;50.864;12.096;2023-03-14T06:55:14;97065.91;;;11.94;70.16
11212;BME280;5663;50.864;12.096;2023-03-14T06:57:43;97093.50;;;12.14;70.02
11212;BME280;5663;50.864;12.096;2023-03-14T07:00:13;97096.78;;;12.16;70.00
11212;BME280;5663;50.864;12.096;2023-03-14T07:02:42;97098.44;;;12.17;69.98
11212;BME280;5663;50.864;12.096;2023-03-14T07:05:10;97089.38;;;12.21;69.66
11212;BME280;5663;50.864;12.096;2023-03-14T07:07:37;97104.69;;;12.24;69.54
11212;BME280;5663;50.864;12.096;2023-03-14T07:10:05;97095.63;;;12.28;69.68
11212;BME280;5663;50.864;12.096;2023-03-14T07:12:35;97095.34;;;12.31;69.67
11212;BME280;5663;50.864;12.096;2023-03-14T07:15:05;97099.16;;;12.37;69.51
11212;BME280;5663;50.864;12.096;2023-03-14T07:17:32;97106.84;;;12.39;69.57
11212;BME280;5663;50.864;12.096;2023-03-14T07:20:00;97084.38;;;12.28;69.41
11212;BME280;5663;50.864;12.096;2023-03-14T07:22:30;97108.88;;;12.45;69.63
11212;BME280;5663;50.864;12.096;2023-03-14T07:24:57;97115.00;;;12.53;69.42
11212;BME280;5663;50.864;12.096;2023-03-14T07:27:28;97112.22;;;12.55;69.13
11212;BME280;5663;50.864;12.096;2023-03-14T07:29:57;97126.44;;;12.61;68.93
11212;BME280;5663;50.864;12.096;2023-03-14T12:32:12;97113.00;;;16.37;57.17
11212;BME280;5663;50.864;12.096;2023-03-14T12:34:48;97111.38;;;16.36;56.88
11212;BME280;5663;50.864;12.096;2023-03-14T12:37:26;97116.16;;;16.32;57.01
11212;BME280;5663;50.864;12.096;2023-03-14T12:40:15;97120.91;;;16.29;56.88
11212;BME280;5663;50.864;12.096;2023-03-14T12:42:54;97107.47;;;16.23;56.90
11212;BME280;5663;50.864;12.096;2023-03-14T12:45:28;97109.47;;;16.21;57.10
11212;BME280;5663;50.864;12.096;2023-03-14T12:48:19;97100.28;;;16.25;57.12
11212;BME280;5663;50.864;12.096;2023-03-14T12:50:55;97087.78;;;16.27;56.92
11212;BME280;5663;50.864;12.096;2023-03-14T12:56:45;97094.28;;;16.48;58.24
11212;BME280;5663;50.864;12.096;2023-03-14T12:59:30;97080.56;;;16.69;58.15
11212;BME280;5663;50.864;12.096;2023-03-14T13:02:02;97082.69;;;16.73;57.37
11212;BME280;5663;50.864;12.096;2023-03-14T13:04:46;97068.47;;;16.60;57.60
11212;BME280;5663;50.864;12.096;2023-03-14T13:07:30;97084.00;;;16.69;57.00
11212;BME280;5663;50.864;12.096;2023-03-14T13:10:16;97086.84;;;16.60;56.38
11212;BME280;5663;50.864;12.096;2023-03-14T13:12:52;97100.44;;;16.55;56.18
11212;BME280;5663;50.864;12.096;2023-03-14T13:15:28;97092.28;;;16.50;55.89
11212;BME280;5663;50.864;12.096;2023-03-14T13:18:01;97092.28;;;16.50;56.26
11212;BME280;5663;50.864;12.096;2023-03-14T13:20:34;97078.66;;;16.55;56.62
11212;BME280;5663;50.864;12.096;2023-03-14T13:23:04;97073.69;;;16.68;56.51
11212;BME280;5663;50.864;12.096;2023-03-14T13:25:34;97068.44;;;16.91;56.54
11212;BME280;5663;50.864;12.096;2023-03-14T13:28:03;97064.84;;;16.92;56.18
11212;BME280;5663;50.864;12.096;2023-03-14T13:30:39;97060.16;;;17.02;55.99
11212;BME280;5663;50.864;12.096;2023-03-14T14:34:17;97090.63;;;16.57;56.24
11212;BME280;5663;50.864;12.096;2023-03-14T14:36:46;97088.03;;;16.49;56.99
11212;BME280;5663;50.864;12.096;2023-03-14T14:39:19;97093.94;;;16.43;57.72
11212;BME280;5663;50.864;12.096;2023-03-14T14:41:49;97076.00;;;16.23;57.74
11212;BME280;5663;50.864;12.096;2023-03-14T14:44:20;97099.47;;;16.17;57.71
11212;BME280;5663;50.864;12.096;2023-03-14T14:46:49;97114.44;;;16.08;58.09
11212;BME280;5663;50.864;12.096;2023-03-14T14:49:19;97117.06;;;16.00;58.64
11212;BME280;5663;50.864;12.096;2023-03-14T14:51:48;97120.38;;;15.86;58.62
11212;BME280;5663;50.864;12.096;2023-03-14T14:54:17;97109.22;;;15.59;59.36
11212;BME280;5663;50.864;12.096;2023-03-14T14:56:48;97136.72;;;15.63;59.75
11212;BME280;5663;50.864;12.096;2023-03-14T14:59:25;97147.41;;;15.53;59.83
11212;BME280;5663;50.864;12.096;2023-03-14T15:24:54;97231.56;;;14.32;64.93
11212;BME280;5663;50.864;12.096;2023-03-14T15:27:22;97235.13;;;14.22;65.61
11212;BME280;5663;50.864;12.096;2023-03-14T15:29:50;97308.53;;;14.11;65.81
11212;BME280;5663;50.864;12.096;2023-03-14T15:32:18;97354.03;;;13.83;64.86
11212;BME280;5663;50.864;12.096;2023-03-14T16:33:36;97707.94;;;9.91;66.95
11212;BME280;5663;50.864;12.096;2023-03-14T16:36:06;97705.75;;;9.62;66.94
11212;BME280;5663;50.864;12.096;2023-03-14T16:38:35;97727.84;;;9.44;66.62
11212;BME280;5663;50.864;12.096;2023-03-14T16:41:04;97773.78;;;9.30;66.61
11212;BME280;5663;50.864;12.096;2023-03-14T16:43:32;97785.22;;;9.15;66.59
11212;BME280;5663;50.864;12.096;2023-03-14T16:46:02;97803.13;;;8.81;66.48
11212;BME280;5663;50.864;12.096;2023-03-14T16:48:30;97825.75;;;8.79;66.36
11212;BME280;5663;50.864;12.096;2023-03-14T16:50:59;97846.50;;;8.67;66.89
11212;BME280;5663;50.864;12.096;2023-03-14T16:53:27;97866.28;;;8.55;66.90
11212;BME280;5663;50.864;12.096;2023-03-14T16:55:57;97854.34;;;8.39;66.96
11212;BME280;5663;50.864;12.096;2023-03-14T16:58:26;97886.13;;;8.42;67.63
11212;BME280;5663;50.864;12.096;2023-03-14T17:00:55;97882.78;;;8.27;67.21
11212;BME280;5663;50.864;12.096;2023-03-14T17:03:24;97892.66;;;8.34;67.42
11212;BME280;5663;50.864;12.096;2023-03-14T17:05:53;97922.03;;;8.33;67.24
11212;BME280;5663;50.864;12.096;2023-03-14T17:08:22;97933.47;;;8.31;67.16
11212;BME280;5663;50.864;12.096;2023-03-14T17:10:50;97949.38;;;8.25;67.43
11212;BME280;5663;50.864;12.096;2023-03-14T17:13:18;97959.91;;;8.22;66.96
11212;BME280;5663;50.864;12.096;2023-03-14T17:15:53;97966.16;;;8.19;66.96
11212;BME280;5663;50.864;12.096;2023-03-14T17:18:24;97973.38;;;8.14;66.89
11212;BME280;5663;50.864;12.096;2023-03-14T17:20:55;97955.28;;;8.00;66.91
11212;BME280;5663;50.864;12.096;2023-03-14T17:23:26;97980.16;;;8.02;66.80
11212;BME280;5663;50.864;12.096;2023-03-14T17:25:53;97982.84;;;8.01;66.76
11212;BME280;5663;50.864;12.096;2023-03-14T17:28:23;98003.00;;;7.96;66.89
11212;BME280;5663;50.864;12.096;2023-03-14T17:31:00;98016.72;;;7.83;66.01
11212;BME280;5663;50.864;12.096;2023-03-14T19:33:46;98323.50;;;7.27;66.94
11212;BME280;5663;50.864;12.096;2023-03-14T19:36:25;98318.63;;;7.21;66.91
11212;BME280;5663;50.864;12.096;2023-03-14T19:38:54;98331.91;;;7.15;66.91
11212;BME280;5663;50.864;12.096;2023-03-14T19:41:24;98334.81;;;7.09;66.89
11212;BME280;5663;50.864;12.096;2023-03-14T19:44:33;98338.47;;;7.05;66.64
11212;BME280;5663;50.864;12.096;2023-03-14T19:47:00;98347.31;;;7.01;66.42
11212;BME280;5663;50.864;12.096;2023-03-14T19:49:31;98358.66;;;6.98;65.95
11212;BME280;5663;50.864;12.096;2023-03-14T19:51:58;98360.72;;;6.91;66.02
11212;BME280;5663;50.864;12.096;2023-03-14T19:54:26;98372.13;;;6.87;65.94
11212;BME280;5663;50.864;12.096;2023-03-14T19:56:54;98364.19;;;6.75;65.76
11212;BME280;5663;50.864;12.096;2023-03-14T19:59:21;98393.13;;;6.81;65.81
11212;BME280;5663;50.864;12.096;2023-03-14T20:01:49;98397.44;;;6.81;65.72
11212;BME280;5663;50.864;12.096;2023-03-14T20:04:17;98387.13;;;6.81;65.97
11212;BME280;5663;50.864;12.096;2023-03-14T20:06:46;98415.47;;;6.82;65.60
11212;BME280;5663;50.864;12.096;2023-03-14T20:09:14;98410.59;;;6.76;64.80
11212;BME280;5663;50.864;12.096;2023-03-14T20:11:41;98396.03;;;6.58;64.35
11212;BME280;5663;50.864;12.096;2023-03-14T20:14:09;98391.78;;;6.57;64.88
11212;BME280;5663;50.864;12.096;2023-03-14T20:16:38;98422.75;;;6.74;64.83
11212;BME280;5663;50.864;12.096;2023-03-14T20:19:07;98422.94;;;6.71;64.53
11212;BME280;5663;50.864;12.096;2023-03-14T20:21:35;98430.06;;;6.66;64.62
11212;BME280;5663;50.864;12.096;2023-03-14T20:24:05;98442.97;;;6.66;64.72
11212;BME280;5663;50.864;12.096;2023-03-14T20:26:32;98448.31;;;6.63;64.43
11212;BME280;5663;50.864;12.096;2023-03-14T20:29:01;98469.88;;;6.62;64.76
11212;BME280;5663;50.864;12.096;2023-03-14T20:31:28;98451.56;;;6.49;65.04
11212;BME280;5663;50.864;12.096;2023-03-14T21:35:40;98555.13;;;5.49;66.36
11212;BME280;5663;50.864;12.096;2023-03-14T21:38:07;98554.63;;;5.40;66.64
11212;BME280;5663;50.864;12.096;2023-03-14T21:40:35;98559.78;;;5.40;66.50
11212;BME280;5663;50.864;12.096;2023-03-14T21:43:04;98555.03;;;5.31;67.13
11212;BME280;5663;50.864;12.096;2023-03-14T21:45:31;98514.03;;;5.05;67.18
11212;BME280;5663;50.864;12.096;2023-03-14T21:48:01;98563.00;;;5.25;67.22
11212;BME280;5663;50.864;12.096;2023-03-14T21:50:28;98570.00;;;5.22;67.47
11212;BME280;5663;50.864;12.096;2023-03-14T21:52:59;98544.25;;;5.01;67.94
11212;BME280;5663;50.864;12.096;2023-03-14T21:55:27;98577.94;;;5.17;67.77
11212;BME280;5663;50.864;12.096;2023-03-14T21:57:57;98584.75;;;5.18;68.04
11212;BME280;5663;50.864;12.096;2023-03-14T22:00:24;98588.25;;;5.17;67.63
11212;BME280;5663;50.864;12.096;2023-03-14T22:02:52;98584.91;;;5.15;67.92
11212;BME280;5663;50.864;12.096;2023-03-14T22:05:21;98595.34;;;5.12;68.33
11212;BME280;5663;50.864;12.096;2023-03-14T22:07:49;98592.81;;;5.10;68.19
11212;BME280;5663;50.864;12.096;2023-03-14T22:10:18;98604.75;;;5.13;68.06
11212;BME280;5663;50.864;12.096;2023-03-14T22:12:46;98595.59;;;5.06;68.48
11212;BME280;5663;50.864;12.096;2023-03-14T22:15:13;98617.63;;;5.13;68.78
11212;BME280;5663;50.864;12.096;2023-03-14T22:17:41;98618.41;;;5.15;68.88
11212;BME280;5663;50.864;12.096;2023-03-14T22:20:10;98629.59;;;5.14;68.49
11212;BME280;5663;50.864;12.096;2023-03-14T22:22:38;98638.25;;;5.13;68.53
11212;BME280;5663;50.864;12.096;2023-03-14T22:25:06;98639.91;;;5.14;68.53
11212;BME280;5663;50.864;12.096;2023-03-14T22:27:37;98639.09;;;5.13;68.58
11212;BME280;5663;50.864;12.096;2023-03-14T22:30:06;98636.59;;;5.12;69.11
11212;BME280;5663;50.864;12.096;2023-03-14T22:32:33;98638.31;;;5.11;69.24
11212;BME280;5663;50.864;12.096;2023-03-14T22:35:01;98620.94;;;4.94;68.80
11212;BME280;5663;50.864;12.096;2023-03-14T22:37:29;98653.97;;;5.07;69.11
11212;BME280;5663;50.864;12.096;2023-03-14T22:39:56;98648.94;;;5.04;69.41
11212;BME280;5663;50.864;12.096;2023-03-14T22:42:24;98640.53;;;4.99;69.47
11212;BME280;5663;50.864;12.096;2023-03-14T22:44:53;98633.25;;;4.88;69.49
11212;BME280;5663;50.864;12.096;2023-03-14T22:47:20;98656.97;;;4.96;69.65
11212;BME280;5663;50.864;12.096;2023-03-14T22:49:48;98658.03;;;4.90;69.68
11212;BME280;5663;50.864;12.096;2023-03-14T22:52:16;98663.16;;;4.92;70.05
11212;BME280;5663;50.864;12.096;2023-03-14T22:54:44;98671.72;;;4.92;69.94
11212;BME280;5663;50.864;12.096;2023-03-14T22:57:11;98674.41;;;4.89;69.88
11212;BME280;5663;50.864;12.096;2023-03-14T22:59:39;98681.28;;;4.89;70.05
11212;BME280;5663;50.864;12.096;2023-03-14T23:02:08;98683.94;;;4.87;70.35
11212;BME280;5663;50.864;12.096;2023-03-14T23:04:36;98687.38;;;4.86;70.34
11212;BME280;5663;50.864;12.096;2023-03-14T23:07:04;98684.69;;;4.89;70.14
11212;BME280;5663;50.864;12.096;2023-03-14T23:09:32;98697.59;;;4.89;70.00
11212;BME280;5663;50.864;12.096;2023-03-14T23:12:00;98685.72;;;4.85;70.54
11212;BME280;5663;50.864;12.096;2023-03-14T23:14:28;98696.81;;;4.87;70.73
11212;BME280;5663;50.864;12.096;2023-03-14T23:16:55;98697.59;;;4.89;70.55
11212;BME280;5663;50.864;12.096;2023-03-14T23:19:24;98702.72;;;4.89;70.52
11212;BME280;5663;50.864;12.096;2023-03-14T23:21:51;98695.91;;;4.88;70.69
11212;BME280;5663;50.864;12.096;2023-03-14T23:24:19;98679.13;;;4.78;70.17
11212;BME280;5663;50.864;12.096;2023-03-14T23:26:47;98707.88;;;4.89;70.23
11212;BME280;5663;50.864;12.096;2023-03-14T23:29:15;98706.22;;;4.88;70.39
11212;BME280;5663;50.864;12.096;2023-03-14T23:31:42;98708.69;;;4.91;70.60
11212;BME280;5663;50.864;12.096;2023-03-14T23:34:10;98701.91;;;4.89;70.31
11212;BME280;5663;50.864;12.096;2023-03-14T23:36:39;98705.38;;;4.88;70.08
11212;BME280;5663;50.864;12.096;2023-03-14T23:39:09;98714.84;;;4.87;70.81
11212;BME280;5663;50.864;12.096;2023-03-14T23:41:37;98718.28;;;4.86;70.57
11212;BME280;5663;50.864;12.096;2023-03-14T23:44:05;98721.78;;;4.85;70.54
11212;BME280;5663;50.864;12.096;2023-03-14T23:46:33;98725.25;;;4.84;70.59
11212;BME280;5663;50.864;12.096;2023-03-14T23:49:00;98732.34;;;4.79;70.45
11212;BME280;5663;50.864;12.096;2023-03-14T23:51:28;98734.09;;;4.77;70.60
11212;BME280;5663;50.864;12.096;2023-03-14T23:53:57;98731.72;;;4.73;70.49
11212;BME280;5663;50.864;12.096;2023-03-14T23:56:25;98734.47;;;4.68;70.49
11212;BME280;5663;50.864;12.096;2023-03-14T23:58:52;98742.38;;;4.63;70.53
